sensor_id;sensor_type;location;lat;lon;timestamp;pressure;altitude;pressure_sealevel;temperature;humidity
55540;BME280;41384;51.418;7.286;2022-08-19T00:00:08;99621.69;;;19.75;88.84
55540;BME280;41384;51.418;7.286;2022-08-19T00:02:34;99621.16;;;19.73;89.42
55540;BME280;41384;51.418;7.286;2022-08-19T00:04:59;99625.47;;;19.64;89.69
55540;BME280;41384;51.418;7.286;2022-08-19T00:07:25;99624.94;;;19.57;91.21
55540;BME280;41384;51.418;7.286;2022-08-19T00:09:50;99627.63;;;19.57;90.45
55540;BME280;41384;51.418;7.286;2022-08-19T00:12:16;99627.09;;;19.54;91.06
55540;BME280;41384;51.418;7.286;2022-08-19T00:14:41;99623.34;;;19.50;91.44
55540;BME280;41384;51.418;7.286;2022-08-19T00:17:08;99624.94;;;19.57;90.41
55540;BME280;41384;51.418;7.286;2022-08-19T00:19:34;99632.44;;;19.49;91.00
55540;BME280;41384;51.418;7.286;2022-08-19T00:21:59;99631.13;;;19.47;91.98
55540;BME280;41384;51.418;7.286;2022-08-19T00:24:25;99627.63;;;19.51;90.81
55540;BME280;41384;51.418;7.286;2022-08-19T00:26:51;99629.47;;;19.66;90.15
55540;BME280;41384;51.418;7.286;2022-08-19T00:29:19;99637.22;;;19.68;89.55
55540;BME280;41384;51.418;7.286;2022-08-19T00:31:45;99637.25;;;19.58;90.59
55540;BME280;41384;51.418;7.286;2022-08-19T00:34:11;99630.84;;;19.53;90.32
55540;BME280;41384;51.418;7.286;2022-08-19T00:36:37;99636.47;;;19.52;91.24
55540;BME280;41384;51.418;7.286;2022-08-19T00:39:03;99631.94;;;19.37;91.94
55540;BME280;41384;51.418;7.286;2022-08-19T00:41:29;99628.72;;;19.35;91.69
55540;BME280;41384;51.418;7.286;2022-08-19T00:44:10;99626.03;;;19.50;90.53
55540;BME280;41384;51.418;7.286;2022-08-19T00:46:37;99625.75;;;19.42;91.64
55540;BME280;41384;51.418;7.286;2022-08-19T00:49:09;99622.03;;;19.27;92.78
55540;BME280;41384;51.418;7.286;2022-08-19T00:51:39;99625.53;;;19.22;92.50
55540;BME280;41384;51.418;7.286;2022-08-19T00:54:06;99622.84;;;19.22;93.42
55540;BME280;41384;51.418;7.286;2022-08-19T00:56:32;99629.50;;;19.30;92.15
55540;BME280;41384;51.418;7.286;2022-08-19T00:59:00;99626.59;;;19.27;92.79
55540;BME280;41384;51.418;7.286;2022-08-19T01:01:27;99618.03;;;19.24;93.16
55540;BME280;41384;51.418;7.286;2022-08-19T01:03:52;99605.97;;;19.27;92.94
55540;BME280;41384;51.418;7.286;2022-08-19T01:06:18;99615.38;;;19.14;94.01
55540;BME280;41384;51.418;7.286;2022-08-19T01:08:43;99614.28;;;19.20;94.20
55540;BME280;41384;51.418;7.286;2022-08-19T01:11:08;99619.38;;;19.12;94.65
55540;BME280;41384;51.418;7.286;2022-08-19T01:13:34;99611.63;;;19.10;95.14
55540;BME280;41384;51.418;7.286;2022-08-19T01:16:04;99616.16;;;19.04;94.81
55540;BME280;41384;51.418;7.286;2022-08-19T01:18:31;99618.28;;;19.02;95.12
55540;BME280;41384;51.418;7.286;2022-08-19T01:23:40;99623.09;;;19.05;93.56
55540;BME280;41384;51.418;7.286;2022-08-19T01:26:15;99617.75;;;19.00;95.23
55540;BME280;41384;51.418;7.286;2022-08-19T01:28:42;99622.31;;;19.05;95.10
55540;BME280;41384;51.418;7.286;2022-08-19T01:31:10;99616.16;;;19.15;94.10
55540;BME280;41384;51.418;7.286;2022-08-19T01:33:37;99618.56;;;19.11;93.89
55540;BME280;41384;51.418;7.286;2022-08-19T01:36:08;99605.75;;;19.08;94.71
55540;BME280;41384;51.418;7.286;2022-08-19T01:38:36;99607.34;;;19.04;95.29
55540;BME280;41384;51.418;7.286;2022-08-19T01:41:02;99603.06;;;19.03;96.14
55540;BME280;41384;51.418;7.286;2022-08-19T01:43:27;99600.38;;;19.03;96.70
55540;BME280;41384;51.418;7.286;2022-08-19T01:45:52;99600.63;;;19.12;95.46
55540;BME280;41384;51.418;7.286;2022-08-19T01:48:18;99602.53;;;19.06;95.57
55540;BME280;41384;51.418;7.286;2022-08-19T01:50:43;99600.63;;;19.12;95.06
55540;BME280;41384;51.418;7.286;2022-08-19T01:53:11;99611.09;;;19.08;94.90
55540;BME280;41384;51.418;7.286;2022-08-19T01:55:39;99602.53;;;19.11;95.09
55540;BME280;41384;51.418;7.286;2022-08-19T01:58:05;99608.66;;;19.17;95.30
55540;BME280;41384;51.418;7.286;2022-08-19T02:00:32;99605.44;;;19.15;94.98
55540;BME280;41384;51.418;7.286;2022-08-19T02:02:58;99597.44;;;18.99;95.58
55540;BME280;41384;51.418;7.286;2022-08-19T02:05:24;99603.56;;;19.00;95.30
55540;BME280;41384;51.418;7.286;2022-08-19T02:07:50;99602.47;;;18.90;94.75
55540;BME280;41384;51.418;7.286;2022-08-19T02:10:20;99604.06;;;18.81;95.69
55540;BME280;41384;51.418;7.286;2022-08-19T02:12:46;99598.19;;;18.89;95.79
55540;BME280;41384;51.418;7.286;2022-08-19T02:15:11;99587.50;;;18.84;95.94
55540;BME280;41384;51.418;7.286;2022-08-19T02:17:37;99584.03;;;18.78;95.98
55540;BME280;41384;51.418;7.286;2022-08-19T02:20:03;99584.03;;;18.89;95.78
55540;BME280;41384;51.418;7.286;2022-08-19T02:22:28;99590.16;;;18.79;96.35
55540;BME280;41384;51.418;7.286;2022-08-19T02:24:55;99589.91;;;18.91;96.00
55540;BME280;41384;51.418;7.286;2022-08-19T02:27:21;99595.50;;;18.74;97.09
55540;BME280;41384;51.418;7.286;2022-08-19T02:29:48;99599.53;;;18.71;97.21
55540;BME280;41384;51.418;7.286;2022-08-19T02:32:15;99607.56;;;18.76;96.73
55540;BME280;41384;51.418;7.286;2022-08-19T02:34:41;99594.72;;;18.68;96.75
55540;BME280;41384;51.418;7.286;2022-08-19T02:37:07;99603.00;;;18.87;95.35
55540;BME280;41384;51.418;7.286;2022-08-19T02:39:56;99596.34;;;18.95;94.82
55540;BME280;41384;51.418;7.286;2022-08-19T02:42:22;99599.78;;;18.90;95.87
55540;BME280;41384;51.418;7.286;2022-08-19T02:44:47;99603.81;;;18.88;96.44
55540;BME280;41384;51.418;7.286;2022-08-19T02:47:13;99601.16;;;18.83;96.45
55540;BME280;41384;51.418;7.286;2022-08-19T02:49:40;99600.06;;;18.78;96.82
55540;BME280;41384;51.418;7.286;2022-08-19T02:52:05;99598.72;;;18.65;100.00
55540;BME280;41384;51.418;7.286;2022-08-19T02:54:31;99593.91;;;18.88;98.84
55540;BME280;41384;51.418;7.286;2022-08-19T02:56:56;99597.66;;;18.92;97.13
55540;BME280;41384;51.418;7.286;2022-08-19T02:59:21;99597.97;;;19.01;95.81
55540;BME280;41384;51.418;7.286;2022-08-19T03:01:46;99588.31;;;18.85;97.47
55540;BME280;41384;51.418;7.286;2022-08-19T03:04:14;99597.66;;;18.82;97.44
55540;BME280;41384;51.418;7.286;2022-08-19T03:06:43;99606.22;;;18.84;97.21
55540;BME280;41384;51.418;7.286;2022-08-19T03:09:10;99607.56;;;18.87;96.31
55540;BME280;41384;51.418;7.286;2022-08-19T03:11:36;99610.50;;;18.90;97.49
55540;BME280;41384;51.418;7.286;2022-08-19T03:14:04;99611.03;;;18.92;97.14
55540;BME280;41384;51.418;7.286;2022-08-19T03:16:31;99608.13;;;18.99;97.31
55540;BME280;41384;51.418;7.286;2022-08-19T03:18:57;99612.38;;;18.95;97.07
55540;BME280;41384;51.418;7.286;2022-08-19T03:21:28;99607.88;;;19.01;95.70
55540;BME280;41384;51.418;7.286;2022-08-19T03:23:55;99599.78;;;18.75;98.00
55540;BME280;41384;51.418;7.286;2022-08-19T03:26:20;99601.41;;;18.76;97.83
55540;BME280;41384;51.418;7.286;2022-08-19T03:28:46;99605.69;;;18.87;97.33
55540;BME280;41384;51.418;7.286;2022-08-19T03:31:16;99600.88;;;18.84;97.31
55540;BME280;41384;51.418;7.286;2022-08-19T03:33:42;99601.41;;;18.81;97.39
55540;BME280;41384;51.418;7.286;2022-08-19T03:36:23;99596.06;;;18.81;96.48
55540;BME280;41384;51.418;7.286;2022-08-19T03:38:51;99601.66;;;18.69;98.40
55540;BME280;41384;51.418;7.286;2022-08-19T03:41:20;99598.44;;;18.57;100.00
55540;BME280;41384;51.418;7.286;2022-08-19T03:43:46;99598.94;;;18.53;100.00
55540;BME280;41384;51.418;7.286;2022-08-19T03:46:15;99607.00;;;18.59;99.74
55540;BME280;41384;51.418;7.286;2022-08-19T03:48:41;99601.13;;;18.67;98.33
55540;BME280;41384;51.418;7.286;2022-08-19T03:51:14;99610.22;;;18.66;98.73
55540;BME280;41384;51.418;7.286;2022-08-19T03:53:40;99595.50;;;18.63;98.56
55540;BME280;41384;51.418;7.286;2022-08-19T03:56:09;99605.41;;;18.68;99.50
55540;BME280;41384;51.418;7.286;2022-08-19T03:58:35;99604.59;;;18.67;99.35
55540;BME280;41384;51.418;7.286;2022-08-19T04:01:07;99612.63;;;18.73;99.00
55540;BME280;41384;51.418;7.286;2022-08-19T04:03:33;99617.94;;;18.57;99.41
55540;BME280;41384;51.418;7.286;2022-08-19T04:05:59;99614.72;;;18.50;100.00
55540;BME280;41384;51.418;7.286;2022-08-19T04:08:24;99605.88;;;18.44;100.00
55540;BME280;41384;51.418;7.286;2022-08-19T04:10:50;99612.28;;;18.43;100.00
55540;BME280;41384;51.418;7.286;2022-08-19T04:13:17;99606.72;;;18.50;100.00
55540;BME280;41384;51.418;7.286;2022-08-19T04:15:44;99616.53;;;18.34;100.00
55540;BME280;41384;51.418;7.286;2022-08-19T04:18:12;99615.22;;;18.36;100.00
55540;BME280;41384;51.418;7.286;2022-08-19T04:20:45;99610.69;;;18.52;100.00
55540;BME280;41384;51.418;7.286;2022-08-19T04:23:12;99615.78;;;18.49;100.00
55540;BME280;41384;51.418;7.286;2022-08-19T04:25:43;99613.34;;;18.42;100.00
55540;BME280;41384;51.418;7.286;2022-08-19T04:28:10;99617.16;;;18.57;100.00
55540;BME280;41384;51.418;7.286;2022-08-19T04:30:48;99611.81;;;18.62;99.94
55540;BME280;41384;51.418;7.286;2022-08-19T04:33:16;99627.59;;;18.79;99.50
55540;BME280;41384;51.418;7.286;2022-08-19T04:35:44;99627.59;;;18.84;99.91
55540;BME280;41384;51.418;7.286;2022-08-19T04:38:11;99619.59;;;18.89;100.00
55540;BME280;41384;51.418;7.286;2022-08-19T04:40:41;99632.69;;;18.86;100.00
55540;BME280;41384;51.418;7.286;2022-08-19T04:43:25;99624.69;;;18.96;100.00
55540;BME280;41384;51.418;7.286;2022-08-19T04:45:51;99633.81;;;19.00;100.00
55540;BME280;41384;51.418;7.286;2022-08-19T04:48:16;99634.88;;;19.15;99.34
55540;BME280;41384;51.418;7.286;2022-08-19T04:50:43;99637.53;;;19.25;98.19
55540;BME280;41384;51.418;7.286;2022-08-19T04:53:09;99634.09;;;19.24;98.16
55540;BME280;41384;51.418;7.286;2022-08-19T04:55:39;99631.66;;;19.18;98.95
55540;BME280;41384;51.418;7.286;2022-08-19T04:58:04;99638.38;;;19.20;99.18
55540;BME280;41384;51.418;7.286;2022-08-19T05:00:29;99640.50;;;19.23;99.57
55540;BME280;41384;51.418;7.286;2022-08-19T05:02:55;99642.09;;;19.24;99.57
55540;BME280;41384;51.418;7.286;2022-08-19T05:05:20;99647.47;;;19.19;100.00
55540;BME280;41384;51.418;7.286;2022-08-19T05:07:45;99641.81;;;19.21;100.00
55540;BME280;41384;51.418;7.286;2022-08-19T05:10:11;99649.59;;;19.22;100.00
55540;BME280;41384;51.418;7.286;2022-08-19T05:12:37;99654.41;;;19.31;99.25
55540;BME280;41384;51.418;7.286;2022-08-19T05:15:04;99653.06;;;19.38;97.48
55540;BME280;41384;51.418;7.286;2022-08-19T05:17:31;99652.50;;;19.42;97.24
55540;BME280;41384;51.418;7.286;2022-08-19T05:19:56;99646.09;;;19.43;97.20
55540;BME280;41384;51.418;7.286;2022-08-19T05:22:41;99645.56;;;19.40;97.12
55540;BME280;41384;51.418;7.286;2022-08-19T05:25:10;99650.13;;;19.35;97.85
55540;BME280;41384;51.418;7.286;2022-08-19T05:27:37;99651.47;;;19.32;98.09
55540;BME280;41384;51.418;7.286;2022-08-19T05:30:03;99656.28;;;19.35;97.75
55540;BME280;41384;51.418;7.286;2022-08-19T05:32:28;99652.53;;;19.47;96.76
55540;BME280;41384;51.418;7.286;2022-08-19T05:34:54;99650.41;;;19.49;96.53
55540;BME280;41384;51.418;7.286;2022-08-19T05:37:19;99649.03;;;19.62;96.02
55540;BME280;41384;51.418;7.286;2022-08-19T05:39:45;99638.06;;;19.58;96.19
55540;BME280;41384;51.418;7.286;2022-08-19T05:42:11;99642.56;;;19.68;95.15
55540;BME280;41384;51.418;7.286;2022-08-19T05:44:40;99642.56;;;19.68;95.61
55540;BME280;41384;51.418;7.286;2022-08-19T05:47:09;99642.03;;;19.71;95.16
55540;BME280;41384;51.418;7.286;2022-08-19T05:49:36;99646.28;;;19.88;94.11
55540;BME280;41384;51.418;7.286;2022-08-19T05:52:04;99655.66;;;19.95;93.63
55540;BME280;41384;51.418;7.286;2022-08-19T05:54:30;99647.63;;;19.95;93.93
55540;BME280;41384;51.418;7.286;2022-08-19T05:56:56;99644.69;;;19.97;93.74
55540;BME280;41384;51.418;7.286;2022-08-19T05:59:21;99648.44;;;20.01;93.63
55540;BME280;41384;51.418;7.286;2022-08-19T06:01:48;99653.25;;;19.99;94.38
55540;BME280;41384;51.418;7.286;2022-08-19T06:04:18;99653.03;;;19.75;96.01
55540;BME280;41384;51.418;7.286;2022-08-19T06:06:45;99649.78;;;19.78;96.19
55540;BME280;41384;51.418;7.286;2022-08-19T06:09:11;99655.66;;;19.95;94.57
55540;BME280;41384;51.418;7.286;2022-08-19T06:11:40;99663.63;;;20.16;92.96
55540;BME280;41384;51.418;7.286;2022-08-19T06:14:09;99660.19;;;20.05;93.70
55540;BME280;41384;51.418;7.286;2022-08-19T06:16:36;99654.28;;;20.14;93.21
55540;BME280;41384;51.418;7.286;2022-08-19T06:19:04;99649.63;;;20.30;92.01
55540;BME280;41384;51.418;7.286;2022-08-19T06:21:32;99655.88;;;20.15;93.27
55540;BME280;41384;51.418;7.286;2022-08-19T06:23:58;99648.06;;;20.23;93.17
55540;BME280;41384;51.418;7.286;2022-08-19T06:26:24;99646.72;;;20.26;92.04
55540;BME280;41384;51.418;7.286;2022-08-19T06:28:50;99651.50;;;20.34;91.84
55540;BME280;41384;51.418;7.286;2022-08-19T06:31:17;99653.16;;;20.25;91.76
55540;BME280;41384;51.418;7.286;2022-08-19T06:33:44;99653.44;;;20.18;92.53
55540;BME280;41384;51.418;7.286;2022-08-19T06:36:34;99640.81;;;20.29;92.43
55540;BME280;41384;51.418;7.286;2022-08-19T06:39:02;99652.56;;;20.33;91.78
55540;BME280;41384;51.418;7.286;2022-08-19T06:41:29;99649.16;;;20.17;91.92
55540;BME280;41384;51.418;7.286;2022-08-19T06:43:55;99649.44;;;20.16;92.01
55540;BME280;41384;51.418;7.286;2022-08-19T06:46:20;99659.31;;;20.20;93.14
55540;BME280;41384;51.418;7.286;2022-08-19T06:48:47;99661.44;;;20.23;92.37
55540;BME280;41384;51.418;7.286;2022-08-19T06:51:15;99658.28;;;20.16;92.69
55540;BME280;41384;51.418;7.286;2022-08-19T06:53:43;99655.88;;;20.15;92.97
55540;BME280;41384;51.418;7.286;2022-08-19T06:56:11;99657.00;;;20.03;93.67
55540;BME280;41384;51.418;7.286;2022-08-19T06:58:38;99660.13;;;20.21;92.79
55540;BME280;41384;51.418;7.286;2022-08-19T07:01:04;99664.84;;;20.45;91.45
55540;BME280;41384;51.418;7.286;2022-08-19T07:03:34;99659.69;;;20.59;91.20
55540;BME280;41384;51.418;7.286;2022-08-19T07:06:07;99661.06;;;20.51;91.00
55540;BME280;41384;51.418;7.286;2022-08-19T07:08:34;99659.66;;;20.64;91.00
55540;BME280;41384;51.418;7.286;2022-08-19T07:11:00;99667.38;;;20.70;90.28
55540;BME280;41384;51.418;7.286;2022-08-19T07:13:25;99670.88;;;20.71;90.97
55540;BME280;41384;51.418;7.286;2022-08-19T07:15:51;99665.50;;;20.76;89.83
55540;BME280;41384;51.418;7.286;2022-08-19T07:18:19;99664.41;;;20.82;89.87
55540;BME280;41384;51.418;7.286;2022-08-19T07:20:45;99666.50;;;20.91;89.58
55540;BME280;41384;51.418;7.286;2022-08-19T07:23:11;99669.81;;;20.72;91.18
55540;BME280;41384;51.418;7.286;2022-08-19T07:25:37;99666.03;;;20.73;91.22
55540;BME280;41384;51.418;7.286;2022-08-19T07:28:03;99678.25;;;20.95;89.78
55540;BME280;41384;51.418;7.286;2022-08-19T07:30:29;99671.94;;;20.80;90.92
55540;BME280;41384;51.418;7.286;2022-08-19T07:32:54;99677.03;;;20.82;91.13
55540;BME280;41384;51.418;7.286;2022-08-19T07:35:21;99683.97;;;20.88;91.12
55540;BME280;41384;51.418;7.286;2022-08-19T07:37:46;99685.13;;;20.61;93.12
55540;BME280;41384;51.418;7.286;2022-08-19T07:40:12;99691.97;;;20.93;91.59
55540;BME280;41384;51.418;7.286;2022-08-19T07:42:38;99687.47;;;20.83;92.28
55540;BME280;41384;51.418;7.286;2022-08-19T07:45:04;99690.59;;;20.96;91.36
55540;BME280;41384;51.418;7.286;2022-08-19T07:47:30;99695.66;;;21.03;90.86
55540;BME280;41384;51.418;7.286;2022-08-19T07:49:56;99696.88;;;21.21;89.74
55540;BME280;41384;51.418;7.286;2022-08-19T07:52:21;99705.63;;;20.97;90.28
55540;BME280;41384;51.418;7.286;2022-08-19T07:54:47;99709.84;;;21.08;89.37
55540;BME280;41384;51.418;7.286;2022-08-19T07:57:12;99702.00;;;21.17;89.10
55540;BME280;41384;51.418;7.286;2022-08-19T07:59:38;99712.44;;;21.19;88.48
55540;BME280;41384;51.418;7.286;2022-08-19T08:02:04;99713.00;;;21.21;88.37
55540;BME280;41384;51.418;7.286;2022-08-19T08:04:30;99721.56;;;21.23;88.28
55540;BME280;41384;51.418;7.286;2022-08-19T08:07:14;99720.56;;;21.08;89.04
55540;BME280;41384;51.418;7.286;2022-08-19T08:09:58;99725.63;;;21.15;88.40
55540;BME280;41384;51.418;7.286;2022-08-19T08:12:28;99729.94;;;21.11;88.73
55540;BME280;41384;51.418;7.286;2022-08-19T08:14:57;99728.00;;;21.22;88.75
55540;BME280;41384;51.418;7.286;2022-08-19T08:17:25;99736.31;;;21.20;87.92
55540;BME280;41384;51.418;7.286;2022-08-19T08:19:51;99736.59;;;21.19;88.48
55540;BME280;41384;51.418;7.286;2022-08-19T08:22:19;99740.50;;;21.37;87.65
55540;BME280;41384;51.418;7.286;2022-08-19T08:25:15;99736.66;;;21.48;86.48
55540;BME280;41384;51.418;7.286;2022-08-19T08:27:43;99744.88;;;21.27;88.36
55540;BME280;41384;51.418;7.286;2022-08-19T08:30:13;99741.28;;;21.42;87.59
55540;BME280;41384;51.418;7.286;2022-08-19T08:32:40;99736.91;;;21.52;87.38
55540;BME280;41384;51.418;7.286;2022-08-19T08:35:09;99738.56;;;21.82;85.43
55540;BME280;41384;51.418;7.286;2022-08-19T08:37:35;99736.56;;;21.58;86.54
55540;BME280;41384;51.418;7.286;2022-08-19T08:40:09;99740.31;;;21.57;86.91
55540;BME280;41384;51.418;7.286;2022-08-19T08:42:51;99739.22;;;21.93;84.99
55540;BME280;41384;51.418;7.286;2022-08-19T08:45:20;99732.16;;;22.02;84.95
55540;BME280;41384;51.418;7.286;2022-08-19T08:47:48;99733.16;;;22.12;84.58
55540;BME280;41384;51.418;7.286;2022-08-19T08:52:48;99738.84;;;22.05;84.70
55540;BME280;41384;51.418;7.286;2022-08-19T08:55:20;99733.88;;;22.18;84.21
55540;BME280;41384;51.418;7.286;2022-08-19T09:00:19;99731.25;;;22.37;82.88
55540;BME280;41384;51.418;7.286;2022-08-19T09:02:46;99734.72;;;22.37;82.05
55540;BME280;41384;51.418;7.286;2022-08-19T09:05:11;99730.59;;;22.50;81.28
55540;BME280;41384;51.418;7.286;2022-08-19T09:08:04;99736.72;;;22.56;80.22
55540;BME280;41384;51.418;7.286;2022-08-19T09:10:37;99726.91;;;22.65;80.16
55540;BME280;41384;51.418;7.286;2022-08-19T09:13:21;99729.22;;;22.72;78.43
55540;BME280;41384;51.418;7.286;2022-08-19T09:15:54;99729.38;;;22.81;77.35
55540;BME280;41384;51.418;7.286;2022-08-19T09:18:21;99726.81;;;22.89;76.54
55540;BME280;41384;51.418;7.286;2022-08-19T09:20:47;99724.28;;;22.98;75.95
55540;BME280;41384;51.418;7.286;2022-08-19T09:23:13;99736.06;;;23.02;74.00
55540;BME280;41384;51.418;7.286;2022-08-19T09:25:38;99726.63;;;23.05;73.00
55540;BME280;41384;51.418;7.286;2022-08-19T09:28:05;99735.91;;;23.13;73.54
55540;BME280;41384;51.418;7.286;2022-08-19T09:30:38;99730.38;;;23.42;71.22
55540;BME280;41384;51.418;7.286;2022-08-19T09:33:04;99728.44;;;23.29;72.63
55540;BME280;41384;51.418;7.286;2022-08-19T09:35:30;99725.75;;;23.29;71.46
55540;BME280;41384;51.418;7.286;2022-08-19T09:37:56;99724.16;;;23.28;71.77
55540;BME280;41384;51.418;7.286;2022-08-19T09:40:22;99723.75;;;23.35;72.44
55540;BME280;41384;51.418;7.286;2022-08-19T09:42:48;99718.97;;;23.31;72.98
55540;BME280;41384;51.418;7.286;2022-08-19T09:45:15;99723.56;;;23.31;73.86
55540;BME280;41384;51.418;7.286;2022-08-19T09:47:40;99724.13;;;23.47;72.03
55540;BME280;41384;51.418;7.286;2022-08-19T09:50:08;99728.50;;;23.43;71.22
55540;BME280;41384;51.418;7.286;2022-08-19T09:52:35;99722.97;;;23.15;72.38
55540;BME280;41384;51.418;7.286;2022-08-19T09:55:03;99721.38;;;23.14;73.13
55540;BME280;41384;51.418;7.286;2022-08-19T09:57:28;99721.09;;;23.15;73.40
55540;BME280;41384;51.418;7.286;2022-08-19T09:59:53;99717.47;;;23.06;72.34
55540;BME280;41384;51.418;7.286;2022-08-19T10:02:19;99727.56;;;23.14;72.55
55540;BME280;41384;51.418;7.286;2022-08-19T10:04:44;99723.03;;;23.10;71.37
55540;BME280;41384;51.418;7.286;2022-08-19T10:07:29;99736.94;;;23.36;70.12
55540;BME280;41384;51.418;7.286;2022-08-19T10:09:55;99724.81;;;23.53;70.25
55540;BME280;41384;51.418;7.286;2022-08-19T10:12:21;99729.34;;;23.57;69.09
55540;BME280;41384;51.418;7.286;2022-08-19T10:14:47;99721.34;;;23.66;67.74
55540;BME280;41384;51.418;7.286;2022-08-19T10:17:13;99723.38;;;23.74;68.05
55540;BME280;41384;51.418;7.286;2022-08-19T10:19:38;99713.41;;;23.75;67.24
55540;BME280;41384;51.418;7.286;2022-08-19T10:22:05;99720.56;;;23.80;67.57
55540;BME280;41384;51.418;7.286;2022-08-19T10:24:33;99706.97;;;24.04;65.72
55540;BME280;41384;51.418;7.286;2022-08-19T10:27:00;99721.63;;;24.26;62.67
55540;BME280;41384;51.418;7.286;2022-08-19T10:29:29;99720.44;;;24.18;63.89
55540;BME280;41384;51.418;7.286;2022-08-19T10:31:54;99711.66;;;24.12;63.71
55540;BME280;41384;51.418;7.286;2022-08-19T10:34:21;99716.75;;;24.00;65.27
55540;BME280;41384;51.418;7.286;2022-08-19T10:36:46;99712.72;;;23.83;63.27
55540;BME280;41384;51.418;7.286;2022-08-19T10:39:11;99717.81;;;23.99;63.15
55540;BME280;41384;51.418;7.286;2022-08-19T10:41:38;99720.13;;;24.19;63.46
55540;BME280;41384;51.418;7.286;2022-08-19T10:44:08;99726.94;;;24.03;62.19
55540;BME280;41384;51.418;7.286;2022-08-19T10:46:38;99719.75;;;24.26;62.47
55540;BME280;41384;51.418;7.286;2022-08-19T10:49:08;99715.44;;;24.39;61.17
55540;BME280;41384;51.418;7.286;2022-08-19T10:51:33;99713.84;;;24.38;59.78
55540;BME280;41384;51.418;7.286;2022-08-19T10:54:17;99711.03;;;24.43;59.38
55540;BME280;41384;51.418;7.286;2022-08-19T10:56:43;99712.22;;;24.51;60.10
55540;BME280;41384;51.418;7.286;2022-08-19T11:01:44;99711.72;;;24.49;59.12
55540;BME280;41384;51.418;7.286;2022-08-19T11:04:10;99717.22;;;24.44;58.84
55540;BME280;41384;51.418;7.286;2022-08-19T11:06:37;99715.22;;;24.50;58.27
55540;BME280;41384;51.418;7.286;2022-08-19T11:09:03;99713.31;;;24.64;58.40
55540;BME280;41384;51.418;7.286;2022-08-19T11:11:29;99721.09;;;24.80;59.13
55540;BME280;41384;51.418;7.286;2022-08-19T11:13:55;99717.78;;;25.05;57.58
55540;BME280;41384;51.418;7.286;2022-08-19T11:16:23;99714.59;;;25.03;57.58
55540;BME280;41384;51.418;7.286;2022-08-19T11:18:53;99714.56;;;24.95;57.48
55540;BME280;41384;51.418;7.286;2022-08-19T11:21:23;99712.34;;;24.97;57.48
55540;BME280;41384;51.418;7.286;2022-08-19T11:23:50;99715.81;;;24.97;57.61
55540;BME280;41384;51.418;7.286;2022-08-19T11:26:16;99709.53;;;25.02;57.98
55540;BME280;41384;51.418;7.286;2022-08-19T11:28:42;99698.78;;;25.11;57.11
55540;BME280;41384;51.418;7.286;2022-08-19T11:31:19;99698.97;;;25.14;56.11
55540;BME280;41384;51.418;7.286;2022-08-19T11:33:45;99691.47;;;25.11;56.09
55540;BME280;41384;51.418;7.286;2022-08-19T11:36:11;99697.41;;;24.99;56.90
55540;BME280;41384;51.418;7.286;2022-08-19T11:38:37;99702.91;;;25.08;55.28
55540;BME280;41384;51.418;7.286;2022-08-19T11:41:05;99701.97;;;25.13;54.99
55540;BME280;41384;51.418;7.286;2022-08-19T11:43:33;99701.53;;;25.42;54.83
55540;BME280;41384;51.418;7.286;2022-08-19T11:45:59;99693.03;;;25.26;55.40
55540;BME280;41384;51.418;7.286;2022-08-19T11:48:24;99703.09;;;25.34;54.96
55540;BME280;41384;51.418;7.286;2022-08-19T11:50:52;99694.66;;;25.59;53.74
55540;BME280;41384;51.418;7.286;2022-08-19T11:53:18;99702.09;;;25.53;53.60
55540;BME280;41384;51.418;7.286;2022-08-19T11:55:48;99692.44;;;25.61;53.07
55540;BME280;41384;51.418;7.286;2022-08-19T11:58:15;99689.16;;;25.73;52.80
55540;BME280;41384;51.418;7.286;2022-08-19T12:00:40;99696.47;;;25.72;51.42
55540;BME280;41384;51.418;7.286;2022-08-19T12:03:06;99693.72;;;25.63;52.46
55540;BME280;41384;51.418;7.286;2022-08-19T12:05:32;99687.06;;;25.70;50.78
55540;BME280;41384;51.418;7.286;2022-08-19T12:07:57;99689.59;;;26.06;50.70
55540;BME280;41384;51.418;7.286;2022-08-19T12:10:23;99688.72;;;25.79;51.99
55540;BME280;41384;51.418;7.286;2022-08-19T12:12:49;99681.72;;;25.87;51.88
55540;BME280;41384;51.418;7.286;2022-08-19T12:15:14;99689.06;;;25.96;52.98
55540;BME280;41384;51.418;7.286;2022-08-19T12:17:41;99681.72;;;25.87;50.89
55540;BME280;41384;51.418;7.286;2022-08-19T12:20:08;99685.06;;;25.75;51.70
55540;BME280;41384;51.418;7.286;2022-08-19T12:22:35;99676.94;;;25.75;50.57
55540;BME280;41384;51.418;7.286;2022-08-19T12:25:01;99672.75;;;26.10;50.48
55540;BME280;41384;51.418;7.286;2022-08-19T12:27:26;99677.09;;;26.19;50.21
55540;BME280;41384;51.418;7.286;2022-08-19T12:29:51;99685.31;;;26.05;49.36
55540;BME280;41384;51.418;7.286;2022-08-19T12:32:17;99670.75;;;26.24;49.35
55540;BME280;41384;51.418;7.286;2022-08-19T12:34:42;99687.53;;;26.03;49.25
55540;BME280;41384;51.418;7.286;2022-08-19T12:37:08;99679.28;;;26.08;49.95
55540;BME280;41384;51.418;7.286;2022-08-19T12:39:39;99670.59;;;26.20;49.25
55540;BME280;41384;51.418;7.286;2022-08-19T12:42:05;99678.84;;;26.15;49.21
55540;BME280;41384;51.418;7.286;2022-08-19T12:44:30;99675.38;;;26.24;48.87
55540;BME280;41384;51.418;7.286;2022-08-19T12:46:57;99673.00;;;26.40;47.74
55540;BME280;41384;51.418;7.286;2022-08-19T12:49:22;99683.53;;;25.92;48.47
55540;BME280;41384;51.418;7.286;2022-08-19T12:51:47;99681.28;;;25.94;49.75
55540;BME280;41384;51.418;7.286;2022-08-19T12:54:13;99677.97;;;25.97;48.10
55540;BME280;41384;51.418;7.286;2022-08-19T12:56:39;99677.56;;;25.72;48.77
55540;BME280;41384;51.418;7.286;2022-08-19T12:59:06;99678.44;;;25.99;47.38
55540;BME280;41384;51.418;7.286;2022-08-19T13:01:33;99674.09;;;25.89;47.05
55540;BME280;41384;51.418;7.286;2022-08-19T13:03:58;99667.91;;;25.89;47.32
55540;BME280;41384;51.418;7.286;2022-08-19T13:06:25;99658.91;;;26.02;47.30
55540;BME280;41384;51.418;7.286;2022-08-19T13:08:50;99655.84;;;26.04;47.03
55540;BME280;41384;51.418;7.286;2022-08-19T13:11:18;99656.66;;;26.04;46.60